Janesville, New York
Current Conditions -  °F | °C
As of 11:15 AM on Wednesday 22 Oct 2014 (Local Time) from KNY0 Reporting Station
Overcast Overcast  
Wind Chill: 43°   Ceiling: 2200
Heat Index: 48°   Visibility: 10mi
Dew Point: 44°   Wind: 13mph
Humidity: 83%   Direction: 30°NNE
Pressure: 30.1"   Gusts: 22mph
Location:  42.6995°N, 74.5108°W
Report Text: KNY0 221515Z AUTO 03011G19KT 10SM OVC022 09/06 A3010 RMK AO2 T00910064
Loading
Personal Weather Stations






























Interactive Weather Map
Tropical Storm Tracking
New forecast layout! Learn more

10-Day Weather Forecast

Advertisements
Track Severe Weather on mobile